Flight Track Log - Related Links

Times and Time Zones

All times are in EDT time to prevent confusion due to time zone crossing. See the AWI3551 flight status page for this flight to view local times or setup timezone preferences in your user account.

Time Position Orientation Groundspeed Altitude Reporting Facility
EDT Latitude Longitude Course Direction KTS MPH feet Rate Location/Type
Mon 05:33:36 AM 42.9333 -78.7500 180° South 171 197 1,800  Level Buffalo TRACON
Mon 05:34:42 AM 42.8833 -78.7833 206° Southwest 205 236 4,500 2,593 Climbing Buffalo TRACON
Mon 05:34:57 AM 42.8608 -78.7761 167° South 231 266 5,300 2,240 Climbing Cleveland Center
Mon 05:35:57 AM 42.7919 -78.7611 171° South 246 283 7,300 2,150 Climbing Cleveland Center
Mon 05:36:00 AM 42.6240 -78.6848 172° South  Level FlightAware Approximate
Mon 05:36:57 AM 42.7125 -78.7464 172° South 271 312 9,600  Level Cleveland Center
Mon 05:37:00 AM 42.5213 -78.6647 173° South  Level FlightAware Approximate
Mon 05:37:57 AM 42.6456 -78.7286 169° South 280 322 11,200  Level Cleveland Center
Mon 05:38:00 AM 42.4182 -78.6500 180° South  Level FlightAware Approximate
Mon 05:38:57 AM 42.5617 -78.7000 166° South 290 334 13,800  Level Cleveland Center
Mon 05:39:57 AM 42.4814 -78.6406 151° Southeast 310 357 16,200 2,200 Climbing Cleveland Center
Mon 05:40:57 AM 42.3969 -78.5786 152° Southeast 320 368 18,200 1,900 Climbing Cleveland Center
Mon 05:41:57 AM 42.3125 -78.5139 150° Southeast 340 391 20,000 1,750 Climbing Cleveland Center
Mon 05:42:57 AM 42.2278 -78.4492 150° Southeast 346 398 21,700 1,450 Climbing Cleveland Center
Mon 05:43:57 AM 42.1244 -78.3742 152° Southeast 358 412 22,900 650 Climbing Cleveland Center
Mon 05:44:57 AM 42.0314 -78.3075 152° Southeast 377 434 23,000 50 Climbing Cleveland Center
Mon 05:45:57 AM 41.9383 -78.2411 152° Southeast 377 434 23,000  Level Cleveland Center
Mon 05:48:07 AM 41.7572 -78.1064 151° Southeast 376 433 23,000  Level New York Center
Mon 05:49:05 AM 41.6594 -78.0375 152° Southeast 371 427 23,000  Level New York Center
Mon 05:50:08 AM 41.5717 -77.9750 152° Southeast 371 427 23,000  Level New York Center
Mon 05:51:06 AM 41.4858 -77.9133 152° Southeast 365 420 23,000  Level New York Center
Mon 05:52:07 AM 41.4000 -77.8489 151° Southeast 360 414 23,000  Level New York Center
Mon 05:53:06 AM 41.3142 -77.7872 152° Southeast 354 407 23,000 -101 Level New York Center
Mon 05:54:06 AM 41.2400 -77.7356 152° Southeast 354 407 22,800 -1,100 Descending New York Center
Mon 05:55:06 AM 41.1481 -77.6681 151° Southeast 359 413 20,800 -1,934 Descending New York Center
Mon 05:56:07 AM 41.0581 -77.6011 151° Southeast 364 419 18,900 -1,388 Descending New York Center
Mon 05:57:07 AM 40.9678 -77.5400 153° Southeast 370 426 18,000 -450 Descending New York Center
Mon 05:58:07 AM 40.8858 -77.4797 151° Southeast 358 412 18,000  Level New York Center
Mon 05:59:07 AM 40.8131 -77.4011 141° Southeast 346 398 18,000  Level New York Center
Mon 06:00:07 AM 40.7500 -77.2992 129° Southeast 346 398 18,000  Level New York Center
Mon 06:01:07 AM 40.6847 -77.1972 130° Southeast 352 405 18,000  Level New York Center
Mon 06:02:05 AM 40.6081 -77.0722 129° Southeast 382 440 18,000  Level New York Center
Mon 06:03:08 AM 40.5581 -76.9556 119° Southeast 409 471 18,000  Level New York Center
Mon 06:04:05 AM 40.4992 -76.8058 117° Southeast 416 479 18,000  Level New York Center
Mon 06:05:05 AM 40.4475 -76.6703 117° Southeast 422 486 18,000  Level New York Center
Mon 06:06:06 AM 40.3994 -76.5489 117° Southeast 422 486 18,000 -198 Level New York Center
Mon 06:07:06 AM 40.3417 -76.4025 117° Southeast 422 486 17,600 -1,250 Descending New York Center
Mon 06:08:06 AM 40.2972 -76.2872 117° Southeast 410 472 15,500 198 Descending New York Center
Mon 06:09:07 AM 40.2447 -76.1581 118° Southeast 388 447 18,000 -2,331 Climbing New York Center
Mon 06:10:07 AM 40.2017 -76.0514 118° Southeast 365 420 10,800 -4,235 Descending New York Center
Mon 06:11:06 AM 40.1564 -75.9419 118° Southeast 350 403 9,600 -1,576 Descending New York Center
Mon 06:12:05 AM 40.1131 -75.8356 118° Southeast 316 364 7,700 -1,311 Descending New York Center
Mon 06:13:05 AM 40.0836 -75.7439 113° Southeast 305 351 7,000 -350 Descending New York Center
Mon 06:14:05 AM 40.0825 -75.6244 91° East 296 341 7,000  Level New York Center
Mon 06:15:06 AM 40.0864 -75.5297 87° East 291 335 7,000  Level New York Center
Mon 06:16:05 AM 40.0869 -75.4103 90° East 291 335 7,000  Level New York Center
Mon 06:17:07 AM 40.0800 -75.3178 96° East 291 335 7,000  Level New York Center
Mon 06:17:42 AM 40.0833 -75.2500 86° East 225 259 7,000  Level Philadelphia TRACON
Mon 06:18:42 AM 40.0667 -75.1667 105° East 244 281 7,000 -500 Level Philadelphia TRACON
Mon 06:19:42 AM 40.0333 -75.1000 123° Southeast 230 265 6,000 -1,200 Descending Philadelphia TRACON
Mon 06:20:42 AM 39.9833 -75.0500 143° Southeast 211 243 4,600 -1,750 Descending Philadelphia TRACON
Mon 06:21:42 AM 39.9500 -75.0167 143° Southeast 194 223 2,500 -1,000 Descending Philadelphia TRACON
Mon 06:22:42 AM 39.9167 -75.0500 217° Southwest 167 192 2,600 100 Climbing Philadelphia TRACON

Login

Don't have an account? Register now (free) for customized features, flight alerts, and more!